createdAt,value
2023-04-07T00:02:52.484Z,1.03
2023-04-07T00:08:01.120Z,1.40
2023-04-07T00:13:09.178Z,1.40
2023-04-07T00:18:17.302Z,1.17
2023-04-07T00:23:25.384Z,1.50
2023-04-07T00:28:33.500Z,1.47
2023-04-07T00:33:41.166Z,1.37
2023-04-07T00:38:48.823Z,1.20
2023-04-07T00:43:56.856Z,1.50
2023-04-07T00:49:05.398Z,1.40
2023-04-07T00:54:13.346Z,1.60
2023-04-07T00:59:22.588Z,1.50
2023-04-07T01:04:33.418Z,1.13
2023-04-07T01:09:45.000Z,1.50
2023-04-07T01:14:55.681Z,1.27
2023-04-07T01:20:08.006Z,1.30
2023-04-07T01:25:17.409Z,1.30
2023-04-07T01:30:26.876Z,1.10
2023-04-07T01:35:40.564Z,1.50
2023-04-07T01:40:52.454Z,1.30
2023-04-07T01:46:01.436Z,1.33
2023-04-07T01:51:12.245Z,1.60
2023-04-07T01:56:20.203Z,1.57
2023-04-07T02:01:30.727Z,1.47
2023-04-07T02:06:41.480Z,1.53
2023-04-07T02:11:51.918Z,1.33
2023-04-07T02:17:02.891Z,1.50
2023-04-07T02:22:12.737Z,1.40
2023-04-07T02:27:21.468Z,1.43
2023-04-07T02:32:30.327Z,1.60
2023-04-07T02:37:38.383Z,1.40
2023-04-07T02:42:47.017Z,1.50
2023-04-07T02:47:58.534Z,1.50
2023-04-07T02:53:06.256Z,1.40
2023-04-07T02:58:14.734Z,1.20
2023-04-07T03:03:24.653Z,1.50
2023-04-07T03:08:35.114Z,1.47
2023-04-07T03:13:43.107Z,1.50
2023-04-07T03:18:51.225Z,1.60
2023-04-07T03:24:01.360Z,1.50
2023-04-07T03:29:09.246Z,1.60
2023-04-07T03:34:19.362Z,1.50
2023-04-07T03:39:29.261Z,1.40
2023-04-07T03:44:38.905Z,1.60
2023-04-07T03:49:47.068Z,1.33
2023-04-07T03:54:56.457Z,1.60
2023-04-07T04:00:06.700Z,1.43
2023-04-07T04:05:16.040Z,1.40
2023-04-07T04:10:24.750Z,1.67
2023-04-07T04:15:40.853Z,1.60
2023-04-07T04:20:50.573Z,1.50
2023-04-07T04:26:01.636Z,1.47
2023-04-07T04:31:10.668Z,1.40
2023-04-07T04:36:20.273Z,1.47
2023-04-07T04:41:29.421Z,1.40
2023-04-07T04:46:38.050Z,1.63
2023-04-07T04:51:48.569Z,1.50
2023-04-07T04:56:57.900Z,1.30
2023-04-07T05:02:06.140Z,1.40
2023-04-07T05:07:15.264Z,1.47
2023-04-07T05:12:23.674Z,1.30
2023-04-07T05:17:33.740Z,1.40
2023-04-07T05:22:42.339Z,1.80
2023-04-07T05:27:55.886Z,1.40
2023-04-07T05:33:03.724Z,1.40
2023-04-07T05:38:13.009Z,1.30
2023-04-07T05:43:21.392Z,1.57
2023-04-07T05:48:29.745Z,1.57
2023-04-07T05:53:40.768Z,1.47
2023-04-07T05:58:54.043Z,1.50
2023-04-07T06:04:03.719Z,1.40
2023-04-07T06:09:11.788Z,1.40
2023-04-07T06:14:20.574Z,1.57
2023-04-07T06:19:28.779Z,1.23
2023-04-07T06:24:37.075Z,1.30
2023-04-07T06:29:45.548Z,1.43
2023-04-07T06:34:54.286Z,1.40
2023-04-07T06:40:05.953Z,1.43
2023-04-07T06:45:17.685Z,1.30
2023-04-07T06:50:27.432Z,1.30
2023-04-07T06:55:36.387Z,1.50
2023-04-07T07:00:44.386Z,1.30
2023-04-07T07:05:53.315Z,1.33
2023-04-07T07:11:01.788Z,1.13
2023-04-07T07:16:10.282Z,1.40
2023-04-07T07:21:21.090Z,1.50
2023-04-07T07:26:29.760Z,1.60
2023-04-07T07:31:37.907Z,1.37
2023-04-07T07:36:46.570Z,1.50
2023-04-07T07:41:56.135Z,1.60
2023-04-07T07:47:06.937Z,1.30
2023-04-07T07:52:15.506Z,1.40
2023-04-07T07:57:24.842Z,1.60
2023-04-07T08:02:34.605Z,1.67
2023-04-07T08:07:43.787Z,1.90
2023-04-07T08:12:52.135Z,2.13
2023-04-07T08:18:01.093Z,2.47
2023-04-07T08:23:11.119Z,2.40
2023-04-07T08:28:19.149Z,1.90
2023-04-07T08:33:27.802Z,1.90
2023-04-07T08:38:36.338Z,2.50
2023-04-07T08:43:48.886Z,2.50
2023-04-07T08:48:59.039Z,3.20
2023-04-07T08:54:08.129Z,3.00
2023-04-07T08:59:20.379Z,3.13
2023-04-07T09:04:28.760Z,2.33
2023-04-07T09:09:37.027Z,2.20
2023-04-07T09:14:46.193Z,2.00
2023-04-07T09:19:56.688Z,1.90
2023-04-07T09:25:07.684Z,2.10
2023-04-07T09:30:17.470Z,1.90
2023-04-07T09:35:27.591Z,2.10
2023-04-07T09:40:36.312Z,2.00
2023-04-07T09:45:44.713Z,2.00
2023-04-07T09:50:52.660Z,2.30
2023-04-07T09:56:01.679Z,2.30
2023-04-07T10:01:12.069Z,2.10
2023-04-07T10:06:21.371Z,1.50
2023-04-07T10:11:29.634Z,1.30
2023-04-07T10:16:39.114Z,1.10
2023-04-07T10:21:47.377Z,2.60
2023-04-07T10:27:01.267Z,2.60
2023-04-07T10:32:10.685Z,2.60
2023-04-07T10:37:21.512Z,2.63
2023-04-07T10:42:32.569Z,2.10
2023-04-07T10:47:43.190Z,2.30
2023-04-07T10:52:53.228Z,2.20
2023-04-07T10:58:03.524Z,2.10
2023-04-07T11:03:14.063Z,2.20
2023-04-07T11:08:24.590Z,1.80
2023-04-07T11:13:36.996Z,2.00
2023-04-07T11:18:45.947Z,1.90
2023-04-07T11:23:53.890Z,1.40
2023-04-07T11:29:03.688Z,1.10
2023-04-07T11:34:12.987Z,1.00
2023-04-07T11:39:25.643Z,0.90
2023-04-07T11:44:33.766Z,0.90
2023-04-07T11:49:44.024Z,1.20
2023-04-07T11:54:51.909Z,1.30
2023-04-07T12:00:02.157Z,1.00
2023-04-07T12:05:12.069Z,1.23
2023-04-07T12:10:21.209Z,1.20
2023-04-07T12:15:29.698Z,1.40
2023-04-07T12:20:38.051Z,1.50
2023-04-07T12:25:46.090Z,1.30
2023-04-07T12:30:54.307Z,1.23
2023-04-07T12:36:02.612Z,1.30
2023-04-07T12:41:10.678Z,1.10
2023-04-07T12:46:18.880Z,1.27
2023-04-07T12:51:27.781Z,1.70
2023-04-07T12:56:36.477Z,1.57
2023-04-07T13:01:45.057Z,1.47
2023-04-07T13:06:53.902Z,1.47
2023-04-07T13:12:01.887Z,1.53
2023-04-07T13:17:10.553Z,1.40
2023-04-07T13:27:57.635Z,1.60
2023-04-07T13:33:06.670Z,1.90
2023-04-07T13:38:14.770Z,1.70
2023-04-07T13:43:22.805Z,1.83
2023-04-07T13:48:30.288Z,1.90
2023-04-07T13:53:38.722Z,1.80
2023-04-07T13:58:47.613Z,1.60
2023-04-07T14:03:57.395Z,2.10
2023-04-07T14:09:07.096Z,2.00
2023-04-07T14:14:15.185Z,1.70
2023-04-07T14:19:35.165Z,2.00
2023-04-07T14:24:46.152Z,1.93
2023-04-07T14:29:55.767Z,2.10
2023-04-07T14:35:05.059Z,1.90
2023-04-07T14:40:13.378Z,2.13
2023-04-07T14:45:27.047Z,2.00
2023-04-07T14:50:35.477Z,1.97
2023-04-07T14:55:45.068Z,1.53
2023-04-07T15:00:53.481Z,2.20
2023-04-07T15:06:01.888Z,1.80
2023-04-07T15:11:10.759Z,2.07
2023-04-07T15:16:19.974Z,1.40
2023-04-07T15:21:28.463Z,1.40
2023-04-07T15:26:37.020Z,1.40
2023-04-07T15:31:47.804Z,1.27
2023-04-07T15:36:57.766Z,1.10
2023-04-07T15:42:08.370Z,1.40
2023-04-07T15:47:16.445Z,1.00
2023-04-07T15:52:25.044Z,1.00
2023-04-07T15:57:33.720Z,1.00
2023-04-07T16:02:42.632Z,1.07
2023-04-07T16:07:51.429Z,1.30
2023-04-07T16:13:01.707Z,1.30
2023-04-07T16:18:14.056Z,1.30
2023-04-07T16:23:22.360Z,1.30
2023-04-07T16:28:31.096Z,1.20
2023-04-07T16:33:40.492Z,1.20
2023-04-07T16:38:50.571Z,1.30
2023-04-07T16:43:59.927Z,1.37
2023-04-07T16:49:08.276Z,1.20
2023-04-07T16:54:16.702Z,1.30
2023-04-07T16:59:25.055Z,1.30
2023-04-07T17:04:33.780Z,1.30
2023-04-07T17:09:42.768Z,1.13
2023-04-07T17:14:51.551Z,0.90
2023-04-07T17:20:00.377Z,0.83
2023-04-07T17:25:08.581Z,1.07
2023-04-07T17:30:17.765Z,1.20
2023-04-07T17:35:26.139Z,1.00
2023-04-07T17:40:35.210Z,1.20
2023-04-07T17:45:44.422Z,1.10
2023-04-07T17:50:53.411Z,1.03
2023-04-07T17:56:02.850Z,1.03
2023-04-07T18:01:11.621Z,1.30
2023-04-07T18:06:20.909Z,1.40
2023-04-07T18:11:28.971Z,1.23
2023-04-07T18:16:37.737Z,1.10
2023-04-07T18:21:46.640Z,1.20
2023-04-07T18:26:54.814Z,1.10
2023-04-07T18:32:03.424Z,1.20
2023-04-07T18:37:12.001Z,1.00
2023-04-07T18:42:20.497Z,1.20
2023-04-07T18:47:31.872Z,1.30
2023-04-07T18:52:42.611Z,1.67
2023-04-07T18:57:51.696Z,1.20
2023-04-07T19:03:00.532Z,1.30
2023-04-07T19:08:08.961Z,1.20
2023-04-07T19:13:18.070Z,1.20
2023-04-07T19:18:28.248Z,1.03
2023-04-07T19:23:38.910Z,1.20
2023-04-07T19:28:48.233Z,1.00
2023-04-07T19:33:57.260Z,1.00
2023-04-07T19:39:06.004Z,0.97
2023-04-07T19:44:13.804Z,0.90
2023-04-07T19:49:24.135Z,0.93
2023-04-07T19:54:34.423Z,0.90
2023-04-07T19:59:45.187Z,0.90
2023-04-07T20:04:54.230Z,0.83
2023-04-07T20:10:05.307Z,0.90
2023-04-07T20:15:13.947Z,1.00
2023-04-07T20:20:24.818Z,0.90
2023-04-07T20:25:33.905Z,0.90
2023-04-07T20:30:43.083Z,0.90
2023-04-07T20:35:53.902Z,0.90
2023-04-07T20:41:03.196Z,1.00
2023-04-07T20:46:12.188Z,1.03
2023-04-07T20:51:20.321Z,0.90
2023-04-07T20:56:29.959Z,0.97
2023-04-07T21:01:39.990Z,0.90
2023-04-07T21:06:50.011Z,1.00
2023-04-07T21:11:58.787Z,0.90
2023-04-07T21:17:12.328Z,0.73
2023-04-07T21:22:21.229Z,0.93
2023-04-07T21:27:31.402Z,1.10
2023-04-07T21:32:39.730Z,0.80
2023-04-07T21:37:52.268Z,1.00
2023-04-07T21:43:01.201Z,0.90
2023-04-07T21:48:09.256Z,0.90
2023-04-07T21:53:17.214Z,0.90
2023-04-07T21:58:25.883Z,0.70
2023-04-07T22:03:33.940Z,0.90
2023-04-07T22:08:51.666Z,0.80
2023-04-07T22:13:51.763Z,0.90
2023-04-07T22:18:59.801Z,0.80
2023-04-07T22:24:07.827Z,0.80
2023-04-07T22:29:15.692Z,0.97
2023-04-07T22:34:24.003Z,0.90
2023-04-07T22:39:32.585Z,0.97
2023-04-07T22:44:40.607Z,0.90
2023-04-07T22:49:49.646Z,0.90
2023-04-07T22:54:59.182Z,1.00
2023-04-07T23:00:08.864Z,1.03
2023-04-07T23:05:18.052Z,1.07
2023-04-07T23:10:26.741Z,1.00
2023-04-07T23:15:37.152Z,1.20
2023-04-07T23:20:47.973Z,1.17
2023-04-07T23:25:56.034Z,1.37
2023-04-07T23:31:04.404Z,1.10
2023-04-07T23:36:12.324Z,1.20
2023-04-07T23:41:20.361Z,1.10
2023-04-07T23:46:28.264Z,1.20
2023-04-07T23:51:36.408Z,1.40
2023-04-07T23:56:45.980Z,1.30
